Time;durP1;ratioP1;P1;durP2;ratioP2;P2;SDS_P1;SDS_P2;PMS_P1;PMS_P2;Temp;Humidity;BMP_temperature;BMP_pressure;BME280_temperature;BME280_humidity;BME280_pressure;Samples;Min_cycle;Max_cycle;Signal;HPM_P1;HPM_P2
2023/12/06 00:00:03;;;;;;;57.73;17.07;;;;;;;;;;5031137;28;20131;-65
2023/12/06 00:02:29;;;;;;;53.60;15.80;;;;;;;;;;5031804;28;20091;-65
2023/12/06 00:04:55;;;;;;;63.33;14.93;;;;;;;;;;5032087;28;20083;-65
2023/12/06 00:07:20;;;;;;;67.53;15.97;;;;;;;;;;5039008;28;20021;-65
2023/12/06 00:09:45;;;;;;;64.70;16.90;;;;;;;;;;5033483;28;20036;-64
2023/12/06 00:12:11;;;;;;;83.67;17.47;;;;;;;;;;5030873;28;20422;-64
2023/12/06 00:14:36;;;;;;;93.80;19.07;;;;;;;;;;5042684;28;20026;-63
2023/12/06 00:17:01;;;;;;;98.60;18.77;;;;;;;;;;5041044;28;20033;-65
2023/12/06 00:19:26;;;;;;;99.47;18.03;;;;;;;;;;5037839;28;20088;-65
2023/12/06 00:21:52;;;;;;;118.87;19.60;;;;;;;;;;5031978;28;20025;-64
2023/12/06 00:24:17;;;;;;;124.90;19.37;;;;;;;;;;5038380;28;20039;-64
2023/12/06 00:26:43;;;;;;;113.83;19.63;;;;;;;;;;5037349;28;20022;-65
2023/12/06 00:29:08;;;;;;;104.03;19.17;;;;;;;;;;5037978;28;20071;-67
2023/12/06 00:31:33;;;;;;;117.00;20.60;;;;;;;;;;5038962;28;20135;-67
2023/12/06 00:33:59;;;;;;;96.03;18.70;;;;;;;;;;5033768;28;20063;-66
2023/12/06 00:36:24;;;;;;;106.33;19.00;;;;;;;;;;5035552;28;20507;-67
2023/12/06 00:38:49;;;;;;;96.10;17.37;;;;;;;;;;5036846;28;20022;-67
2023/12/06 00:41:15;;;;;;;128.43;20.40;;;;;;;;;;5033500;28;20035;-67
2023/12/06 00:43:40;;;;;;;117.93;20.90;;;;;;;;;;5036481;28;20476;-67
2023/12/06 00:46:05;;;;;;;98.10;19.33;;;;;;;;;;5032713;28;20079;-67
2023/12/06 00:48:30;;;;;;;107.60;19.03;;;;;;;;;;5036774;28;20021;-68
2023/12/06 00:50:56;;;;;;;94.10;18.67;;;;;;;;;;5034260;28;20021;-68
2023/12/06 00:53:21;;;;;;;101.10;19.30;;;;;;;;;;5032259;28;20044;-68
2023/12/06 00:55:46;;;;;;;116.13;18.30;;;;;;;;;;5037338;28;20094;-68
2023/12/06 00:58:12;;;;;;;119.43;20.37;;;;;;;;;;5036451;28;20084;-68
2023/12/06 01:00:37;;;;;;;99.47;19.70;;;;;;;;;;5033473;28;20026;-67
2023/12/06 01:03:02;;;;;;;86.47;17.67;;;;;;;;;;5038062;28;20034;-68
2023/12/06 01:05:27;;;;;;;89.07;18.57;;;;;;;;;;5041310;28;20025;-68
2023/12/06 01:07:53;;;;;;;108.07;19.70;;;;;;;;;;5033609;28;20030;-69
2023/12/06 01:10:18;;;;;;;92.53;18.63;;;;;;;;;;5038178;28;20037;-68
2023/12/06 01:12:43;;;;;;;90.23;19.27;;;;;;;;;;5042981;28;20029;-68
2023/12/06 01:15:09;;;;;;;81.93;18.13;;;;;;;;;;5038300;28;20031;-68
2023/12/06 01:17:34;;;;;;;94.60;18.70;;;;;;;;;;5040244;28;20096;-68
2023/12/06 01:19:59;;;;;;;76.63;17.53;;;;;;;;;;5030740;28;20021;-69
2023/12/06 01:22:25;;;;;;;77.57;17.90;;;;;;;;;;5043539;28;20131;-69
2023/12/06 01:24:56;;;;;;;77.63;17.00;;;;;;;;;;5038069;28;20051;-69
2023/12/06 01:27:21;;;;;;;71.27;15.93;;;;;;;;;;5042229;28;20526;-69
2023/12/06 01:29:46;;;;;;;71.67;16.67;;;;;;;;;;5036832;28;20033;-69
2023/12/06 01:32:11;;;;;;;76.07;17.33;;;;;;;;;;5038146;28;20090;-69
2023/12/06 01:34:36;;;;;;;72.63;15.80;;;;;;;;;;5041199;28;20454;-69
2023/12/06 01:37:02;;;;;;;64.70;15.23;;;;;;;;;;5039690;28;20112;-70
2023/12/06 01:39:27;;;;;;;61.33;15.17;;;;;;;;;;5038320;28;20022;-69
2023/12/06 01:41:54;;;;;;;57.00;14.67;;;;;;;;;;5036505;28;20037;-70
2023/12/06 01:44:19;;;;;;;53.90;14.37;;;;;;;;;;5035069;28;20485;-69
2023/12/06 01:46:45;;;;;;;52.10;13.67;;;;;;;;;;5039325;28;20021;-68
2023/12/06 01:49:12;;;;;;;50.40;14.73;;;;;;;;;;5032489;28;20025;-69
2023/12/06 01:51:38;;;;;;;56.93;14.97;;;;;;;;;;5036455;28;20045;-70
2023/12/06 01:54:03;;;;;;;58.17;13.63;;;;;;;;;;5035882;28;20210;-69
2023/12/06 01:56:28;;;;;;;49.73;14.43;;;;;;;;;;5034920;28;20037;-69
2023/12/06 01:58:54;;;;;;;53.93;14.40;;;;;;;;;;5040286;28;20013;-69
2023/12/06 02:01:19;;;;;;;51.23;14.30;;;;;;;;;;5034923;28;20107;-69
2023/12/06 02:03:44;;;;;;;55.60;14.90;;;;;;;;;;5037314;28;20020;-69
2023/12/06 02:06:10;;;;;;;49.73;14.07;;;;;;;;;;5033490;28;20048;-69
2023/12/06 02:08:35;;;;;;;49.33;13.77;;;;;;;;;;5034499;28;20432;-69
2023/12/06 02:11:01;;;;;;;58.20;14.10;;;;;;;;;;5039907;28;20901;-68
2023/12/06 02:13:27;;;;;;;55.80;15.03;;;;;;;;;;5039543;28;20060;-68
2023/12/06 02:15:52;;;;;;;60.33;15.20;;;;;;;;;;5033612;28;20036;-69
2023/12/06 02:18:18;;;;;;;52.03;13.67;;;;;;;;;;5033143;28;20029;-68
2023/12/06 02:20:43;;;;;;;62.13;16.07;;;;;;;;;;5036654;28;20613;-68
2023/12/06 02:23:09;;;;;;;65.77;16.57;;;;;;;;;;5041463;28;20029;-68
2023/12/06 02:25:34;;;;;;;64.60;16.17;;;;;;;;;;5041544;28;20363;-68
2023/12/06 02:28:00;;;;;;;58.37;16.37;;;;;;;;;;5032258;28;20036;-69
2023/12/06 02:30:25;;;;;;;59.67;16.57;;;;;;;;;;5037423;28;20474;-68
2023/12/06 02:32:50;;;;;;;54.27;15.37;;;;;;;;;;5034219;28;20022;-68
2023/12/06 02:35:23;;;;;;;57.97;15.37;;;;;;;;;;5037029;28;20029;-68
2023/12/06 02:37:50;;;;;;;63.97;16.87;;;;;;;;;;5039858;28;20116;-68
2023/12/06 02:40:16;;;;;;;70.43;17.47;;;;;;;;;;5035772;28;20415;-68
2023/12/06 02:42:41;;;;;;;68.83;17.77;;;;;;;;;;5036771;28;20052;-69
2023/12/06 02:45:07;;;;;;;62.67;17.63;;;;;;;;;;5038004;28;20096;-68
2023/12/06 02:47:32;;;;;;;80.87;18.47;;;;;;;;;;5037990;28;20025;-68
2023/12/06 02:49:57;;;;;;;79.40;18.43;;;;;;;;;;5035044;28;20033;-67
2023/12/06 02:52:23;;;;;;;84.90;20.33;;;;;;;;;;5032358;28;20140;-68
2023/12/06 02:54:48;;;;;;;92.93;22.37;;;;;;;;;;5035588;28;20029;-68
2023/12/06 02:57:13;;;;;;;93.90;20.63;;;;;;;;;;5035487;28;20429;-68
2023/12/06 02:59:38;;;;;;;90.00;20.87;;;;;;;;;;5031441;28;20025;-68
2023/12/06 03:02:04;;;;;;;86.50;22.17;;;;;;;;;;5038735;28;20029;-67
2023/12/06 03:04:30;;;;;;;93.90;21.17;;;;;;;;;;5034696;28;20104;-68
2023/12/06 03:06:55;;;;;;;94.77;22.40;;;;;;;;;;5036450;28;20041;-68
2023/12/06 03:09:20;;;;;;;96.17;21.63;;;;;;;;;;5036918;28;20389;-67
2023/12/06 03:11:46;;;;;;;103.23;24.23;;;;;;;;;;5035482;28;20028;-67
2023/12/06 03:14:11;;;;;;;112.33;23.63;;;;;;;;;;5035370;28;20037;-67
2023/12/06 03:16:36;;;;;;;103.70;24.23;;;;;;;;;;5039283;28;20021;-67
2023/12/06 03:19:02;;;;;;;121.03;26.53;;;;;;;;;;5039095;28;20399;-66
2023/12/06 03:21:27;;;;;;;107.57;24.73;;;;;;;;;;5039232;28;20013;-67
2023/12/06 03:23:52;;;;;;;128.37;27.17;;;;;;;;;;5038780;28;20025;-67
2023/12/06 03:26:17;;;;;;;137.53;28.77;;;;;;;;;;5031644;28;20025;-67
2023/12/06 03:28:43;;;;;;;137.47;29.00;;;;;;;;;;5037109;28;20073;-68
2023/12/06 03:31:08;;;;;;;133.93;28.93;;;;;;;;;;5037747;28;20036;-67
2023/12/06 03:33:33;;;;;;;147.90;30.40;;;;;;;;;;5037565;28;20025;-67
2023/12/06 03:35:58;;;;;;;153.17;29.87;;;;;;;;;;5037040;28;20032;-67
2023/12/06 03:38:24;;;;;;;155.17;30.63;;;;;;;;;;5031295;28;20025;-67
2023/12/06 03:40:49;;;;;;;153.67;31.23;;;;;;;;;;5040517;28;20104;-67
2023/12/06 03:43:14;;;;;;;148.23;31.20;;;;;;;;;;5030767;28;20029;-67
2023/12/06 03:45:39;;;;;;;139.33;30.30;;;;;;;;;;5037247;28;20021;-67
2023/12/06 03:48:05;;;;;;;157.93;29.17;;;;;;;;;;5036369;28;20104;-67
2023/12/06 03:50:30;;;;;;;147.73;31.53;;;;;;;;;;5033432;28;20021;-67
2023/12/06 03:52:56;;;;;;;144.07;29.37;;;;;;;;;;5037843;28;20106;-67
2023/12/06 03:55:21;;;;;;;144.53;30.23;;;;;;;;;;5034616;28;20081;-67
2023/12/06 03:57:47;;;;;;;140.73;29.77;;;;;;;;;;5032026;28;20026;-67
2023/12/06 04:00:13;;;;;;;143.27;30.57;;;;;;;;;;5035263;28;20013;-67
2023/12/06 04:02:38;;;;;;;150.00;30.70;;;;;;;;;;5031492;28;20101;-68
2023/12/06 04:05:04;;;;;;;146.60;30.53;;;;;;;;;;5034903;28;20096;-66
2023/12/06 04:07:29;;;;;;;150.57;31.13;;;;;;;;;;5033403;28;20091;-67
2023/12/06 04:09:54;;;;;;;139.37;29.47;;;;;;;;;;5032928;28;20029;-67
2023/12/06 04:12:20;;;;;;;151.93;31.07;;;;;;;;;;5038299;28;20061;-67
2023/12/06 04:14:45;;;;;;;149.30;30.77;;;;;;;;;;5030729;28;21100;-67
2023/12/06 04:17:10;;;;;;;163.13;33.87;;;;;;;;;;5039716;28;20032;-67
2023/12/06 04:19:38;;;;;;;145.73;31.37;;;;;;;;;;5036646;28;20020;-67
2023/12/06 04:22:03;;;;;;;164.53;35.10;;;;;;;;;;5034655;28;20079;-67
2023/12/06 04:24:30;;;;;;;163.90;35.23;;;;;;;;;;5034375;28;20662;-67
2023/12/06 04:26:55;;;;;;;155.07;33.17;;;;;;;;;;5035956;28;20128;-66
2023/12/06 04:29:20;;;;;;;156.40;34.43;;;;;;;;;;5041056;28;20017;-67
2023/12/06 04:31:45;;;;;;;176.17;35.77;;;;;;;;;;5042693;28;21151;-67
2023/12/06 04:34:11;;;;;;;156.83;34.30;;;;;;;;;;5038351;28;20032;-67
2023/12/06 04:36:36;;;;;;;171.40;36.07;;;;;;;;;;5039601;28;20024;-67
2023/12/06 04:39:01;;;;;;;151.90;33.60;;;;;;;;;;5038918;28;20115;-67
2023/12/06 04:41:27;;;;;;;168.47;34.43;;;;;;;;;;5037934;28;20017;-67
2023/12/06 04:43:52;;;;;;;178.13;36.27;;;;;;;;;;5042791;28;20448;-68
2023/12/06 04:46:17;;;;;;;175.63;35.23;;;;;;;;;;5032507;28;20021;-67
2023/12/06 04:48:42;;;;;;;168.90;34.87;;;;;;;;;;5039713;28;20033;-67
2023/12/06 04:51:09;;;;;;;167.43;35.93;;;;;;;;;;5037855;28;20110;-67
2023/12/06 04:53:34;;;;;;;169.83;35.07;;;;;;;;;;5033453;28;20072;-68
2023/12/06 04:55:59;;;;;;;166.17;34.67;;;;;;;;;;5040500;28;20461;-67
2023/12/06 04:58:25;;;;;;;185.50;34.90;;;;;;;;;;5033197;28;20075;-67
2023/12/06 05:00:52;;;;;;;152.57;34.27;;;;;;;;;;5039846;28;20021;-67
2023/12/06 05:03:17;;;;;;;167.97;35.40;;;;;;;;;;5039366;28;21491;-67
2023/12/06 05:05:43;;;;;;;170.00;35.77;;;;;;;;;;5034980;28;20030;-67
2023/12/06 05:08:08;;;;;;;184.40;37.53;;;;;;;;;;5038261;28;20631;-67
2023/12/06 05:10:33;;;;;;;172.20;34.33;;;;;;;;;;5033224;28;20025;-64
2023/12/06 05:12:59;;;;;;;197.40;36.50;;;;;;;;;;5039730;28;20087;-63
2023/12/06 05:15:24;;;;;;;203.20;38.47;;;;;;;;;;5035865;28;20032;-64
2023/12/06 05:17:50;;;;;;;191.60;37.50;;;;;;;;;;5034586;28;20033;-64
2023/12/06 05:20:16;;;;;;;182.70;37.43;;;;;;;;;;5040851;28;20033;-65
2023/12/06 05:22:41;;;;;;;192.80;38.07;;;;;;;;;;5038420;28;20041;-65
2023/12/06 05:25:06;;;;;;;194.00;39.97;;;;;;;;;;5041118;28;20509;-63
2023/12/06 05:27:33;;;;;;;207.27;38.63;;;;;;;;;;5040491;28;20048;-64
2023/12/06 05:29:58;;;;;;;207.33;38.23;;;;;;;;;;5037175;28;20059;-63
2023/12/06 05:32:23;;;;;;;167.83;36.37;;;;;;;;;;5037278;28;20064;-63
2023/12/06 05:34:48;;;;;;;181.43;37.00;;;;;;;;;;5041213;28;20445;-63
2023/12/06 05:37:14;;;;;;;190.20;40.47;;;;;;;;;;5044040;28;20082;-63
2023/12/06 05:39:39;;;;;;;196.37;38.03;;;;;;;;;;5042431;28;20112;-64
2023/12/06 05:42:04;;;;;;;217.37;39.83;;;;;;;;;;5038552;28;20557;-63
2023/12/06 05:44:30;;;;;;;219.83;40.93;;;;;;;;;;5034720;28;20056;-64
2023/12/06 05:46:55;;;;;;;198.63;38.67;;;;;;;;;;5042560;28;20021;-64
2023/12/06 05:49:20;;;;;;;222.90;42.37;;;;;;;;;;5033155;28;20484;-63
2023/12/06 05:51:46;;;;;;;203.73;40.13;;;;;;;;;;5037405;28;20033;-64
2023/12/06 05:54:11;;;;;;;215.10;39.60;;;;;;;;;;5042665;28;20085;-65
2023/12/06 05:56:36;;;;;;;222.90;39.37;;;;;;;;;;5035223;28;20040;-64
2023/12/06 05:59:01;;;;;;;209.77;40.50;;;;;;;;;;5039611;28;20036;-63
2023/12/06 06:01:28;;;;;;;187.67;38.80;;;;;;;;;;5038071;28;20024;-64
2023/12/06 06:03:53;;;;;;;215.10;39.20;;;;;;;;;;5041503;28;20031;-64
2023/12/06 06:06:18;;;;;;;212.60;40.27;;;;;;;;;;5033525;28;20104;-64
2023/12/06 06:08:43;;;;;;;200.50;38.57;;;;;;;;;;5035225;28;20087;-63
2023/12/06 06:11:09;;;;;;;215.13;37.93;;;;;;;;;;5038254;28;20033;-64
2023/12/06 06:13:34;;;;;;;202.13;38.60;;;;;;;;;;5038109;28;20069;-65
2023/12/06 06:15:59;;;;;;;210.77;39.37;;;;;;;;;;5032988;28;20060;-64
2023/12/06 06:18:24;;;;;;;226.10;38.23;;;;;;;;;;5038686;28;20025;-64
2023/12/06 06:20:50;;;;;;;212.80;38.53;;;;;;;;;;5034768;28;20021;-64
2023/12/06 06:23:15;;;;;;;196.10;37.27;;;;;;;;;;5048711;28;20025;-64
2023/12/06 06:25:40;;;;;;;204.60;41.03;;;;;;;;;;5037059;28;20100;-64
2023/12/06 06:28:06;;;;;;;214.13;40.03;;;;;;;;;;5038474;28;20029;-64
2023/12/06 06:30:31;;;;;;;205.53;39.27;;;;;;;;;;5040873;28;20381;-63
2023/12/06 06:32:57;;;;;;;241.60;43.23;;;;;;;;;;5041504;28;20057;-63
2023/12/06 06:35:22;;;;;;;201.43;40.80;;;;;;;;;;5041402;28;20454;-64
2023/12/06 06:37:47;;;;;;;230.47;41.90;;;;;;;;;;5037894;28;20469;-64
2023/12/06 06:40:14;;;;;;;226.97;39.97;;;;;;;;;;5036885;28;20536;-64
2023/12/06 06:42:40;;;;;;;195.93;37.20;;;;;;;;;;5036430;28;20017;-64
2023/12/06 06:45:06;;;;;;;201.50;37.27;;;;;;;;;;5040595;28;20469;-64
2023/12/06 06:47:31;;;;;;;206.70;38.93;;;;;;;;;;5039681;28;20029;-64
2023/12/06 06:49:56;;;;;;;203.30;38.57;;;;;;;;;;5039604;28;20199;-63
2023/12/06 06:52:22;;;;;;;215.90;39.57;;;;;;;;;;5036691;28;20449;-64
2023/12/06 06:54:47;;;;;;;211.97;40.47;;;;;;;;;;5032406;28;20060;-64
2023/12/06 06:57:13;;;;;;;210.60;37.10;;;;;;;;;;5034759;28;20363;-63
2023/12/06 06:59:38;;;;;;;211.70;39.10;;;;;;;;;;5033142;28;20044;-63
2023/12/06 07:02:03;;;;;;;212.73;39.47;;;;;;;;;;5042319;28;20507;-64
2023/12/06 07:04:29;;;;;;;205.10;39.20;;;;;;;;;;5036370;28;20028;-64
2023/12/06 07:06:54;;;;;;;212.70;39.67;;;;;;;;;;5039417;28;20029;-64
2023/12/06 07:09:19;;;;;;;218.23;39.87;;;;;;;;;;5039349;28;20030;-64
2023/12/06 07:11:45;;;;;;;191.67;36.47;;;;;;;;;;5030605;28;20037;-63
2023/12/06 07:14:11;;;;;;;231.17;39.10;;;;;;;;;;5037138;28;20037;-63
2023/12/06 07:16:36;;;;;;;221.73;39.43;;;;;;;;;;5033760;28;20032;-63
2023/12/06 07:19:02;;;;;;;219.83;41.77;;;;;;;;;;5038755;28;20024;-64
2023/12/06 07:21:27;;;;;;;222.73;39.67;;;;;;;;;;5037159;28;20021;-64
2023/12/06 07:23:52;;;;;;;223.90;38.00;;;;;;;;;;5033680;28;20082;-63
2023/12/06 07:26:18;;;;;;;216.00;38.83;;;;;;;;;;5036950;28;20037;-63
2023/12/06 07:28:44;;;;;;;235.63;40.77;;;;;;;;;;5038848;28;20100;-63
2023/12/06 07:31:09;;;;;;;220.80;40.90;;;;;;;;;;5038194;28;20017;-63
2023/12/06 07:33:35;;;;;;;207.43;37.63;;;;;;;;;;5034521;28;20489;-63
2023/12/06 07:36:00;;;;;;;212.97;39.43;;;;;;;;;;5041276;28;20009;-63
2023/12/06 07:38:25;;;;;;;212.20;38.67;;;;;;;;;;5035207;28;20485;-64
2023/12/06 07:40:51;;;;;;;193.27;36.67;;;;;;;;;;5037420;28;20013;-64
2023/12/06 07:43:16;;;;;;;200.30;37.77;;;;;;;;;;5033950;28;20382;-63
2023/12/06 07:45:41;;;;;;;203.40;37.53;;;;;;;;;;5038680;28;20009;-63
2023/12/06 07:48:06;;;;;;;213.73;39.43;;;;;;;;;;5036618;28;20919;-64
2023/12/06 07:50:32;;;;;;;196.23;36.20;;;;;;;;;;5036395;28;20029;-64
2023/12/06 07:52:57;;;;;;;205.83;38.17;;;;;;;;;;5038229;28;20116;-64
2023/12/06 07:55:22;;;;;;;199.43;36.83;;;;;;;;;;5037924;28;20025;-64
2023/12/06 07:57:48;;;;;;;203.67;38.33;;;;;;;;;;5036469;28;20091;-65
2023/12/06 08:00:14;;;;;;;210.13;39.67;;;;;;;;;;5037390;28;20017;-65
2023/12/06 08:02:41;;;;;;;192.73;37.63;;;;;;;;;;5032311;28;20009;-63
2023/12/06 08:05:07;;;;;;;214.13;39.80;;;;;;;;;;5041842;28;20133;-63
2023/12/06 08:07:33;;;;;;;196.57;36.73;;;;;;;;;;5034845;28;20739;-64
2023/12/06 08:09:58;;;;;;;201.17;36.47;;;;;;;;;;5037677;28;20462;-65
2023/12/06 08:12:23;;;;;;;200.70;37.77;;;;;;;;;;5041750;28;20033;-64
2023/12/06 08:14:48;;;;;;;188.17;37.23;;;;;;;;;;5039542;28;20025;-65
2023/12/06 08:17:14;;;;;;;212.90;41.33;;;;;;;;;;5041795;28;20032;-64
2023/12/06 08:19:39;;;;;;;176.87;35.00;;;;;;;;;;5032179;28;20078;-64
2023/12/06 08:22:04;;;;;;;194.23;38.63;;;;;;;;;;5031541;28;20365;-64
2023/12/06 08:24:29;;;;;;;192.57;37.57;;;;;;;;;;5041652;28;20025;-63
2023/12/06 08:26:55;;;;;;;181.33;36.10;;;;;;;;;;5039391;28;20017;-64
2023/12/06 08:29:20;;;;;;;193.60;37.43;;;;;;;;;;5040859;28;20450;-65
2023/12/06 08:31:46;;;;;;;176.07;38.03;;;;;;;;;;5036769;28;20021;-65
2023/12/06 08:34:11;;;;;;;170.47;37.63;;;;;;;;;;5045879;28;20020;-65
2023/12/06 08:36:36;;;;;;;166.53;34.47;;;;;;;;;;5044827;28;20111;-64
2023/12/06 08:39:03;;;;;;;170.00;36.80;;;;;;;;;;5037582;28;20028;-64
2023/12/06 08:41:28;;;;;;;173.40;36.47;;;;;;;;;;5040111;28;20009;-65
2023/12/06 08:43:54;;;;;;;177.67;37.83;;;;;;;;;;5043002;28;20101;-64
2023/12/06 08:46:20;;;;;;;164.83;36.30;;;;;;;;;;5041274;28;20033;-65
2023/12/06 08:48:46;;;;;;;164.77;36.53;;;;;;;;;;5039098;28;20075;-65
2023/12/06 08:51:12;;;;;;;150.87;33.67;;;;;;;;;;5042061;28;20623;-67
2023/12/06 08:53:37;;;;;;;149.37;33.87;;;;;;;;;;5039535;28;20041;-67
2023/12/06 08:56:03;;;;;;;141.93;34.23;;;;;;;;;;5039644;28;20033;-67
2023/12/06 08:58:28;;;;;;;139.90;34.80;;;;;;;;;;5040481;28;20024;-66
2023/12/06 09:00:53;;;;;;;134.50;34.70;;;;;;;;;;5037971;28;20343;-64
2023/12/06 09:03:19;;;;;;;123.60;32.23;;;;;;;;;;5038795;28;20049;-64
2023/12/06 09:05:44;;;;;;;118.63;30.30;;;;;;;;;;5036710;28;20013;-64
2023/12/06 09:08:11;;;;;;;132.53;31.40;;;;;;;;;;5038321;28;20021;-64
2023/12/06 09:10:37;;;;;;;123.00;29.83;;;;;;;;;;5035042;28;20045;-64
2023/12/06 09:13:02;;;;;;;116.07;30.27;;;;;;;;;;5038440;28;20337;-64
2023/12/06 09:15:28;;;;;;;120.37;31.77;;;;;;;;;;5035996;28;20752;-64
2023/12/06 09:17:53;;;;;;;114.67;29.90;;;;;;;;;;5033750;28;20009;-65
2023/12/06 09:20:18;;;;;;;115.63;31.13;;;;;;;;;;5036980;28;20020;-65
2023/12/06 09:22:43;;;;;;;116.23;29.97;;;;;;;;;;5031724;28;20009;-64
2023/12/06 09:25:09;;;;;;;107.33;28.87;;;;;;;;;;5041305;28;20037;-64
2023/12/06 09:27:34;;;;;;;102.83;28.07;;;;;;;;;;5034620;28;20363;-64
2023/12/06 09:29:59;;;;;;;102.87;27.97;;;;;;;;;;5030933;28;20096;-64
2023/12/06 09:32:25;;;;;;;110.73;27.83;;;;;;;;;;5034477;28;20032;-65
2023/12/06 09:34:50;;;;;;;94.47;27.10;;;;;;;;;;5036070;28;20012;-64
2023/12/06 09:37:16;;;;;;;96.17;26.10;;;;;;;;;;5041417;28;20100;-65
2023/12/06 09:39:41;;;;;;;87.93;25.50;;;;;;;;;;5034608;28;20022;-64
2023/12/06 09:42:06;;;;;;;87.40;26.17;;;;;;;;;;5041822;28;20024;-65
2023/12/06 09:44:32;;;;;;;81.87;25.20;;;;;;;;;;5043448;28;20025;-64
2023/12/06 09:46:58;;;;;;;82.67;24.63;;;;;;;;;;5040976;28;20029;-64
2023/12/06 09:49:24;;;;;;;88.13;25.83;;;;;;;;;;5039202;28;20055;-65
2023/12/06 09:51:50;;;;;;;81.07;24.77;;;;;;;;;;5039094;28;20072;-64
2023/12/06 09:54:15;;;;;;;80.80;25.53;;;;;;;;;;5037551;28;20021;-64
2023/12/06 09:56:40;;;;;;;74.33;24.03;;;;;;;;;;5039930;28;20083;-64
2023/12/06 09:59:05;;;;;;;85.87;26.30;;;;;;;;;;5038827;28;20068;-65
2023/12/06 10:01:31;;;;;;;75.03;23.77;;;;;;;;;;5038456;28;20009;-64
2023/12/06 10:03:56;;;;;;;80.07;24.27;;;;;;;;;;5036177;28;20056;-65
2023/12/06 10:06:21;;;;;;;84.27;26.80;;;;;;;;;;5036151;28;20024;-65
2023/12/06 10:08:51;;;;;;;70.13;22.30;;;;;;;;;;5037851;28;20013;-65
2023/12/06 10:11:17;;;;;;;81.10;26.10;;;;;;;;;;5035297;28;20493;-65
2023/12/06 10:13:42;;;;;;;78.97;24.13;;;;;;;;;;5039010;28;20033;-66
2023/12/06 10:16:13;;;;;;;71.90;22.93;;;;;;;;;;5033477;28;20045;-65
2023/12/06 10:18:39;;;;;;;68.55;22.08;;;;;;;;;;5034489;28;20021;-65
2023/12/06 10:21:05;;;;;;;62.07;20.83;;;;;;;;;;5031318;28;20524;-65
2023/12/06 10:23:30;;;;;;;67.03;23.60;;;;;;;;;;5039062;28;20021;-66
2023/12/06 10:25:55;;;;;;;68.87;22.97;;;;;;;;;;5033371;28;20406;-65
2023/12/06 10:28:21;;;;;;;60.80;21.20;;;;;;;;;;5028870;28;20101;-65
2023/12/06 10:30:46;;;;;;;49.93;18.70;;;;;;;;;;5035795;28;20016;-65
2023/12/06 10:33:12;;;;;;;54.93;19.20;;;;;;;;;;5037273;28;20238;-64
2023/12/06 10:35:37;;;;;;;55.60;20.07;;;;;;;;;;5037306;28;20079;-65
2023/12/06 10:38:03;;;;;;;52.10;18.77;;;;;;;;;;5029754;28;20112;-65
2023/12/06 10:40:29;;;;;;;51.73;18.87;;;;;;;;;;5036191;28;20021;-65
2023/12/06 10:43:01;;;;;;;52.63;19.37;;;;;;;;;;5039241;28;20093;-65
2023/12/06 10:45:26;;;;;;;48.23;18.67;;;;;;;;;;5036798;28;20955;-66
2023/12/06 10:47:52;;;;;;;53.33;17.93;;;;;;;;;;5034040;28;20035;-66
2023/12/06 10:50:18;;;;;;;55.03;19.77;;;;;;;;;;5035800;28;20103;-66
2023/12/06 10:52:44;;;;;;;47.20;17.60;;;;;;;;;;5038640;28;20033;-66
2023/12/06 10:55:10;;;;;;;50.53;18.60;;;;;;;;;;5038737;28;20124;-65
2023/12/06 10:57:37;;;;;;;45.70;17.37;;;;;;;;;;5039883;28;20525;-65
2023/12/06 11:00:03;;;;;;;46.43;17.13;;;;;;;;;;5036664;28;20033;-67
2023/12/06 11:02:28;;;;;;;51.70;18.57;;;;;;;;;;5035874;28;20407;-65
2023/12/06 11:04:57;;;;;;;48.87;17.77;;;;;;;;;;5039601;28;20051;-65
2023/12/06 11:07:40;;;;;;;48.37;17.43;;;;;;;;;;5034942;28;20021;-65
2023/12/06 11:10:23;;;;;;;50.43;19.83;;;;;;;;;;5035838;28;20126;-66
2023/12/06 11:12:58;;;;;;;51.77;18.77;;;;;;;;;;5034582;28;20393;-66
2023/12/06 11:15:42;;;;;;;48.73;19.10;;;;;;;;;;5035872;28;20116;-66
2023/12/06 11:18:18;;;;;;;47.97;18.40;;;;;;;;;;5031764;28;20035;-66
2023/12/06 11:20:44;;;;;;;51.43;17.97;;;;;;;;;;5032804;28;20355;-66
2023/12/06 11:23:09;;;;;;;50.27;18.40;;;;;;;;;;5034674;28;20090;-67
2023/12/06 11:25:44;;;;;;;50.43;18.70;;;;;;;;;;5030598;28;20009;-67
2023/12/06 11:28:13;;;;;;;50.53;19.63;;;;;;;;;;5039177;28;20576;-67
2023/12/06 11:30:48;;;;;;;51.03;18.90;;;;;;;;;;5033638;28;20096;-68
2023/12/06 11:33:14;;;;;;;48.93;19.30;;;;;;;;;;5038940;28;20045;-68
2023/12/06 11:35:49;;;;;;;48.70;20.07;;;;;;;;;;5033665;28;20021;-68
2023/12/06 11:38:14;;;;;;;51.63;19.63;;;;;;;;;;5038180;28;20029;-70
2023/12/06 11:40:48;;;;;;;53.07;21.27;;;;;;;;;;5036168;28;20020;-70
2023/12/06 11:43:14;;;;;;;52.90;22.03;;;;;;;;;;5035469;28;20025;-69
2023/12/06 11:45:39;;;;;;;47.63;18.57;;;;;;;;;;5034946;28;20070;-68
2023/12/06 11:48:05;;;;;;;53.87;20.40;;;;;;;;;;5028230;28;20037;-69
2023/12/06 11:50:52;;;;;;;46.07;18.53;;;;;;;;;;5033431;28;20025;-69
2023/12/06 11:53:17;;;;;;;51.70;19.93;;;;;;;;;;5036426;28;20048;-70
2023/12/06 11:55:42;;;;;;;57.13;24.20;;;;;;;;;;5038564;28;20413;-68
2023/12/06 11:58:09;;;;;;;58.83;23.47;;;;;;;;;;5030068;28;20360;-68
2023/12/06 12:00:37;;;;;;;54.90;22.03;;;;;;;;;;5030883;28;20026;-69
2023/12/06 12:03:03;;;;;;;52.63;20.67;;;;;;;;;;5038325;28;20028;-69
2023/12/06 12:05:28;;;;;;;56.60;22.00;;;;;;;;;;5039650;28;20028;-69
2023/12/06 12:07:54;;;;;;;55.80;21.17;;;;;;;;;;5040115;28;20025;-69
2023/12/06 12:10:19;;;;;;;55.47;20.80;;;;;;;;;;5034104;28;20060;-68
2023/12/06 12:12:46;;;;;;;50.67;21.03;;;;;;;;;;5037106;28;20021;-68
2023/12/06 12:15:11;;;;;;;53.13;21.53;;;;;;;;;;5037524;28;20378;-68
2023/12/06 12:17:36;;;;;;;54.40;23.93;;;;;;;;;;5033283;28;20083;-69
2023/12/06 12:20:03;;;;;;;52.43;21.10;;;;;;;;;;5036870;28;20103;-67
2023/12/06 12:22:29;;;;;;;58.47;21.90;;;;;;;;;;5030026;28;21384;-68
2023/12/06 12:24:54;;;;;;;53.10;21.00;;;;;;;;;;5038249;28;20101;-67
2023/12/06 12:27:20;;;;;;;52.23;21.53;;;;;;;;;;5034773;28;20378;-68
2023/12/06 12:29:46;;;;;;;54.43;22.13;;;;;;;;;;5033838;28;20021;-68
2023/12/06 12:32:11;;;;;;;50.13;19.07;;;;;;;;;;5034574;28;20296;-68
2023/12/06 12:34:37;;;;;;;56.63;21.53;;;;;;;;;;5034173;28;20148;-68
2023/12/06 12:37:02;;;;;;;53.50;21.13;;;;;;;;;;5035559;28;20036;-68
2023/12/06 12:39:28;;;;;;;57.07;22.47;;;;;;;;;;5032181;28;20053;-68
2023/12/06 12:41:54;;;;;;;48.50;19.97;;;;;;;;;;5035663;28;20025;-67
2023/12/06 12:44:19;;;;;;;60.10;23.47;;;;;;;;;;5030342;28;20596;-67
2023/12/06 12:46:45;;;;;;;63.63;23.13;;;;;;;;;;5038367;28;20021;-68
2023/12/06 12:49:11;;;;;;;63.10;22.87;;;;;;;;;;5042675;28;20612;-67
2023/12/06 12:51:37;;;;;;;60.60;22.77;;;;;;;;;;5041668;28;20602;-66
2023/12/06 12:54:02;;;;;;;61.83;22.60;;;;;;;;;;5036484;28;20033;-67
2023/12/06 12:56:27;;;;;;;74.83;24.07;;;;;;;;;;5034904;28;20074;-67
2023/12/06 12:58:53;;;;;;;58.60;20.73;;;;;;;;;;5040459;28;20104;-68
2023/12/06 13:01:19;;;;;;;57.23;20.43;;;;;;;;;;5039924;28;20032;-66
2023/12/06 13:03:44;;;;;;;57.27;22.27;;;;;;;;;;5041023;28;20052;-68
2023/12/06 13:06:09;;;;;;;58.07;20.97;;;;;;;;;;5036285;28;20025;-67
2023/12/06 13:08:35;;;;;;;56.20;22.07;;;;;;;;;;5037876;28;20153;-66
2023/12/06 13:11:00;;;;;;;58.47;22.23;;;;;;;;;;5042768;28;20018;-69
2023/12/06 13:13:26;;;;;;;59.47;23.37;;;;;;;;;;5043005;28;20032;-67
2023/12/06 13:15:52;;;;;;;57.07;20.57;;;;;;;;;;5040626;28;20342;-68
2023/12/06 13:18:18;;;;;;;64.07;23.23;;;;;;;;;;5043768;28;20090;-67
2023/12/06 13:20:43;;;;;;;48.17;18.50;;;;;;;;;;5038864;28;20030;-67
2023/12/06 13:23:09;;;;;;;63.80;22.37;;;;;;;;;;5039151;28;20021;-66
2023/12/06 13:25:34;;;;;;;58.30;21.63;;;;;;;;;;5034128;28;20087;-69
2023/12/06 13:27:59;;;;;;;56.97;20.70;;;;;;;;;;5037004;28;20108;-67
2023/12/06 13:30:24;;;;;;;62.80;23.07;;;;;;;;;;5041426;28;20104;-67
2023/12/06 13:32:50;;;;;;;57.57;23.13;;;;;;;;;;5035815;28;20025;-67
2023/12/06 13:35:15;;;;;;;61.83;23.13;;;;;;;;;;5041428;28;20057;-66
2023/12/06 13:37:40;;;;;;;59.77;22.97;;;;;;;;;;5036063;28;20033;-66
2023/12/06 13:40:07;;;;;;;57.00;22.37;;;;;;;;;;5039569;28;20039;-67
2023/12/06 13:42:33;;;;;;;60.80;24.27;;;;;;;;;;5036673;28;20025;-67
2023/12/06 13:44:58;;;;;;;53.17;23.27;;;;;;;;;;5035399;28;20025;-66
2023/12/06 13:47:24;;;;;;;58.90;23.93;;;;;;;;;;5041572;28;20101;-66
2023/12/06 13:49:49;;;;;;;59.33;24.43;;;;;;;;;;5038827;28;20459;-66
2023/12/06 13:52:15;;;;;;;59.67;23.87;;;;;;;;;;5035375;28;20465;-67
2023/12/06 13:54:40;;;;;;;58.37;23.53;;;;;;;;;;5036737;28;20031;-67
2023/12/06 13:57:07;;;;;;;59.50;22.30;;;;;;;;;;5040995;28;20116;-66
2023/12/06 13:59:32;;;;;;;53.73;22.40;;;;;;;;;;5041938;28;20027;-67
2023/12/06 14:01:57;;;;;;;53.57;22.97;;;;;;;;;;5040327;28;20013;-67